Benin Airport


Codes: DNBE/BNI
Name: Benin Airport
City: Benin
Country: Nigeria
Elevation: 258 ft.
Website:
Wikipedia:

Photos at Benin Airport


   Photos courtesy of SpottingLog. You can add your own sightings and photos by signing up for a free trial today.



No photos found.

Weather at Benin Airport


Time (UTC)DescriptionTempratureWindCloud coverageVisibilityPressureHumidity
26-Jun-2024 00:00Overcast Clouds23°C2 mph, SW100%10000m1013hPa99%
26-Jun-2024 03:00Overcast Clouds23°C2 mph, W100%10000m1012hPa99%
26-Jun-2024 06:00Overcast Clouds23°C0 mph, NW100%10000m1013hPa99%
26-Jun-2024 09:00Light Rain26°C2 mph, W100%10000m1013hPa89%
26-Jun-2024 12:00Moderate Rain27°C4 mph, SW100%10000m1011hPa86%
26-Jun-2024 15:00Moderate Rain27°C7 mph, SW95%10000m1010hPa90%
26-Jun-2024 18:00Light Rain24°C4 mph, W72%10000m1011hPa97%
26-Jun-2024 21:00Broken Clouds23°C2 mph, SW74%10000m1012hPa98%
27-Jun-2024 00:00Broken Clouds23°C2 mph, W83%10000m1011hPa96%
27-Jun-2024 03:00Light Rain23°C2 mph, W100%10000m1011hPa96%
27-Jun-2024 06:00Light Rain24°C2 mph, NW100%10000m1012hPa96%
27-Jun-2024 09:00Light Rain26°C2 mph, W100%10000m1013hPa85%
27-Jun-2024 12:00Light Rain29°C2 mph, SW99%10000m1011hPa71%
27-Jun-2024 15:00Light Rain27°C7 mph, SW94%10000m1010hPa83%
27-Jun-2024 18:00Light Rain25°C4 mph, SW97%10000m1011hPa91%
27-Jun-2024 21:00Overcast Clouds24°C2 mph, SW90%10000m1012hPa97%
28-Jun-2024 00:00Light Rain24°C2 mph, W88%10000m1012hPa97%
28-Jun-2024 03:00Light Rain23°C0 mph, W100%10000m1012hPa99%
28-Jun-2024 06:00Light Rain23°C0 mph, NW100%10000m1013hPa98%
28-Jun-2024 09:00Overcast Clouds26°C2 mph, W100%10000m1013hPa87%
28-Jun-2024 12:00Light Rain29°C2 mph, S98%10000m1012hPa75%
28-Jun-2024 15:00Moderate Rain24°C4 mph, SW100%10000m1011hPa96%
28-Jun-2024 18:00Light Rain23°C4 mph, SW100%10000m1013hPa98%
28-Jun-2024 21:00Overcast Clouds23°C4 mph, SW98%10000m1013hPa98%
29-Jun-2024 00:00Light Rain23°C2 mph, NW99%10000m1013hPa98%
29-Jun-2024 03:00Light Rain23°C0 mph, W99%10000m1012hPa99%
29-Jun-2024 06:00Overcast Clouds23°C0 mph, NE95%10000m1013hPa98%
29-Jun-2024 09:00Overcast Clouds27°C2 mph, SW94%10000m1014hPa79%
29-Jun-2024 12:00Moderate Rain27°C4 mph, SW97%7136m1013hPa85%
29-Jun-2024 15:00Moderate Rain24°C4 mph, SW100%10000m1011hPa96%
29-Jun-2024 18:00Light Rain23°C4 mph, SW98%10000m1012hPa98%
29-Jun-2024 21:00Light Rain23°C2 mph, SW100%10000m1013hPa99%
30-Jun-2024 00:00Overcast Clouds23°C2 mph, SW99%10000m1013hPa99%
30-Jun-2024 03:00Light Rain23°C2 mph, SW98%10000m1012hPa98%
30-Jun-2024 06:00Light Rain23°C0 mph, W98%10000m1013hPa98%
30-Jun-2024 09:00Light Rain24°C2 mph, SW100%10000m1015hPa94%
30-Jun-2024 12:00Moderate Rain26°C7 mph, SW100%10000m1013hPa89%
30-Jun-2024 15:00Light Rain25°C7 mph, SW100%10000m1012hPa90%
30-Jun-2024 18:00Light Rain23°C2 mph, SW100%10000m1013hPa98%
30-Jun-2024 21:00Light Rain23°C2 mph, SW100%10000m1015hPa98%